createdAt,value
2022-08-05T00:02:07.431Z,19.10
2022-08-05T00:04:35.136Z,19.10
2022-08-05T00:07:27.063Z,19.10
2022-08-05T00:09:48.833Z,19.00
2022-08-05T00:12:15.677Z,19.00
2022-08-05T00:14:43.815Z,19.00
2022-08-05T00:17:19.372Z,19.10
2022-08-05T00:20:01.806Z,19.10
2022-08-05T00:22:29.202Z,19.10
2022-08-05T00:24:57.891Z,19.00
2022-08-05T00:27:28.524Z,19.00
2022-08-05T00:30:04.377Z,18.80
2022-08-05T00:32:31.325Z,18.80
2022-08-05T00:35:06.331Z,18.90
2022-08-05T00:37:50.670Z,18.80
2022-08-05T00:40:27.507Z,18.70
2022-08-05T00:42:59.491Z,18.60
2022-08-05T00:45:38.346Z,18.70
2022-08-05T00:48:08.183Z,18.70
2022-08-05T00:50:36.413Z,18.70
2022-08-05T00:53:03.420Z,18.60
2022-08-05T00:55:42.748Z,18.60
2022-08-05T00:58:11.870Z,18.50
2022-08-05T01:00:38.972Z,18.50
2022-08-05T01:03:07.587Z,18.40
2022-08-05T01:05:35.091Z,18.40
2022-08-05T01:08:41.080Z,18.30
2022-08-05T01:11:22.400Z,18.20
2022-08-05T01:14:03.973Z,18.20
2022-08-05T01:16:46.787Z,18.30
2022-08-05T01:19:36.706Z,18.20
2022-08-05T01:22:37.466Z,18.20
2022-08-05T01:25:10.626Z,18.20
2022-08-05T01:27:55.672Z,18.20
2022-08-05T01:30:34.271Z,18.20
2022-08-05T01:33:02.963Z,18.10
2022-08-05T01:35:50.779Z,18.10
2022-08-05T01:38:27.452Z,18.00
2022-08-05T01:40:58.428Z,18.00
2022-08-05T01:43:25.337Z,18.00
2022-08-05T01:45:56.326Z,18.00
2022-08-05T01:48:27.577Z,18.00
2022-08-05T01:50:55.745Z,17.90
2022-08-05T01:53:57.545Z,17.80
2022-08-05T01:56:09.751Z,17.80
2022-08-05T01:58:41.061Z,17.80
2022-08-05T02:01:24.716Z,17.60
2022-08-05T02:03:52.359Z,17.50
2022-08-05T02:06:37.755Z,17.50
2022-08-05T02:09:05.878Z,17.50
2022-08-05T02:11:52.626Z,17.50
2022-08-05T02:14:47.913Z,17.60
2022-08-05T02:17:29.782Z,17.60
2022-08-05T02:20:14.259Z,17.60
2022-08-05T02:22:48.383Z,17.60
2022-08-05T02:25:18.305Z,17.60
2022-08-05T02:27:59.159Z,17.70
2022-08-05T02:30:30.971Z,17.70
2022-08-05T02:32:58.196Z,17.60
2022-08-05T02:35:28.021Z,17.60
2022-08-05T02:37:55.691Z,17.40
2022-08-05T02:40:26.115Z,17.40
2022-08-05T02:42:54.519Z,17.40
2022-08-05T02:45:24.049Z,17.40
2022-08-05T02:48:07.072Z,17.30
2022-08-05T02:50:43.846Z,17.40
2022-08-05T02:53:16.160Z,17.30
2022-08-05T02:55:54.265Z,17.30
2022-08-05T02:58:27.380Z,17.30
2022-08-05T03:00:56.387Z,17.30
2022-08-05T03:03:23.775Z,17.30
2022-08-05T03:06:54.541Z,17.30
2022-08-05T03:08:38.967Z,17.30
2022-08-05T03:11:56.639Z,17.30
2022-08-05T03:14:07.939Z,17.20
2022-08-05T03:16:35.853Z,17.30
2022-08-05T03:19:06.506Z,17.30
2022-08-05T03:21:41.527Z,17.20
2022-08-05T03:24:16.270Z,17.10
2022-08-05T03:26:43.170Z,17.00
2022-08-05T03:29:17.297Z,17.00
2022-08-05T03:31:57.242Z,17.00
2022-08-05T03:34:27.714Z,17.00
2022-08-05T03:36:55.723Z,16.90
2022-08-05T03:39:27.276Z,16.90
2022-08-05T03:41:56.160Z,16.90
2022-08-05T03:44:23.988Z,16.90
2022-08-05T03:46:50.967Z,16.90
2022-08-05T03:49:18.112Z,17.00
2022-08-05T03:52:37.117Z,17.00
2022-08-05T03:55:53.446Z,17.00
2022-08-05T03:57:44.672Z,16.90
2022-08-05T04:00:15.884Z,16.80
2022-08-05T04:02:57.903Z,16.80
2022-08-05T04:05:33.348Z,16.90
2022-08-05T04:08:02.738Z,16.80
2022-08-05T04:10:37.683Z,16.90
2022-08-05T04:13:06.523Z,16.80
2022-08-05T04:15:36.505Z,16.70
2022-08-05T04:18:07.906Z,16.60
2022-08-05T04:20:36.860Z,16.50
2022-08-05T04:23:03.974Z,16.50
2022-08-05T04:25:56.517Z,16.40
2022-08-05T04:28:18.768Z,16.40
2022-08-05T04:30:46.909Z,16.30
2022-08-05T04:33:15.472Z,16.20
2022-08-05T04:36:15.760Z,16.30
2022-08-05T04:38:39.869Z,16.30
2022-08-05T04:41:09.466Z,16.30
2022-08-05T04:43:37.891Z,16.30
2022-08-05T04:46:13.641Z,16.40
2022-08-05T04:48:54.978Z,16.40
2022-08-05T04:51:25.732Z,16.50
2022-08-05T04:53:57.531Z,16.50
2022-08-05T04:56:34.299Z,16.60
2022-08-05T04:59:22.461Z,16.60
2022-08-05T05:02:08.338Z,16.50
2022-08-05T05:04:38.695Z,16.50
2022-08-05T05:07:17.050Z,16.50
2022-08-05T05:09:45.120Z,16.50
2022-08-05T05:12:12.097Z,16.50
2022-08-05T05:14:49.542Z,16.40
2022-08-05T05:17:23.314Z,16.40
2022-08-05T05:19:54.254Z,16.40
2022-08-05T05:22:24.193Z,16.40
2022-08-05T05:24:59.903Z,16.40
2022-08-05T05:27:45.716Z,16.40
2022-08-05T05:30:31.305Z,16.40
2022-08-05T05:33:13.931Z,16.40
2022-08-05T05:35:47.081Z,16.40
2022-08-05T05:38:15.123Z,16.40
2022-08-05T05:40:51.367Z,16.40
2022-08-05T05:43:27.918Z,16.40
2022-08-05T05:46:12.140Z,16.40
2022-08-05T05:48:43.949Z,16.40
2022-08-05T05:51:15.160Z,16.40
2022-08-05T05:53:54.150Z,16.40
2022-08-05T05:56:32.883Z,16.50
2022-08-05T05:59:06.426Z,16.60
2022-08-05T06:01:38.026Z,16.50
2022-08-05T06:04:13.129Z,16.50
2022-08-05T06:06:42.792Z,16.50
2022-08-05T06:09:17.645Z,16.50
2022-08-05T06:12:01.354Z,16.40
2022-08-05T06:14:30.746Z,16.50
2022-08-05T06:16:58.172Z,16.60
2022-08-05T06:19:35.013Z,16.70
2022-08-05T06:22:03.765Z,16.60
2022-08-05T06:24:31.371Z,16.60
2022-08-05T06:26:58.414Z,16.60
2022-08-05T06:29:46.609Z,16.50
2022-08-05T06:32:26.281Z,16.60
2022-08-05T06:34:57.393Z,16.60
2022-08-05T06:37:55.931Z,16.70
2022-08-05T06:40:18.319Z,16.80
2022-08-05T06:42:51.605Z,16.70
2022-08-05T06:45:21.220Z,16.70
2022-08-05T06:48:36.809Z,16.70
2022-08-05T06:50:35.605Z,16.70
2022-08-05T06:53:11.452Z,16.80
2022-08-05T06:55:41.981Z,16.80
2022-08-05T06:58:20.116Z,16.80
2022-08-05T07:01:03.918Z,16.80
2022-08-05T07:03:32.894Z,16.80
2022-08-05T07:06:05.877Z,16.70
2022-08-05T07:08:43.067Z,16.80
2022-08-05T07:11:15.884Z,16.80
2022-08-05T07:14:02.343Z,16.80
2022-08-05T07:17:57.100Z,16.80
2022-08-05T07:22:28.558Z,16.80
2022-08-05T07:24:58.605Z,17.00
2022-08-05T07:27:27.702Z,16.90
2022-08-05T07:30:27.778Z,16.90
2022-08-05T07:32:57.534Z,17.00
2022-08-05T07:36:04.783Z,17.00
2022-08-05T07:38:26.422Z,17.10
2022-08-05T07:41:04.556Z,17.10
2022-08-05T07:43:46.227Z,17.10
2022-08-05T07:46:18.899Z,17.00
2022-08-05T07:49:01.614Z,17.00
2022-08-05T07:51:37.383Z,17.00
2022-08-05T07:54:10.113Z,17.00
2022-08-05T07:57:00.063Z,17.20
2022-08-05T07:59:39.117Z,17.20
2022-08-05T08:02:16.533Z,17.20
2022-08-05T08:04:48.554Z,17.30
2022-08-05T08:07:22.690Z,17.30
2022-08-05T08:09:52.073Z,17.40
2022-08-05T08:12:35.287Z,17.40
2022-08-05T08:15:13.871Z,17.40
2022-08-05T08:17:46.256Z,17.50
2022-08-05T08:20:45.381Z,17.50
2022-08-05T08:23:11.561Z,17.50
2022-08-05T08:26:00.952Z,17.50
2022-08-05T08:28:36.066Z,17.60
2022-08-05T08:31:06.494Z,17.60
2022-08-05T08:33:36.102Z,17.60
2022-08-05T08:38:56.037Z,17.70
2022-08-05T08:41:25.927Z,17.80
2022-08-05T08:45:21.421Z,17.70
2022-08-05T08:46:50.110Z,17.70
2022-08-05T08:50:07.897Z,17.80
2022-08-05T08:52:13.576Z,17.80
2022-08-05T08:54:42.289Z,17.90
2022-08-05T08:57:11.237Z,18.00
2022-08-05T08:59:39.076Z,18.00
2022-08-05T09:02:08.998Z,18.00
2022-08-05T09:04:58.164Z,18.00
2022-08-05T09:07:28.267Z,18.00
2022-08-05T09:09:55.640Z,18.10
2022-08-05T09:12:27.185Z,18.10
2022-08-05T09:14:59.334Z,18.20
2022-08-05T09:17:42.552Z,18.10
2022-08-05T09:20:21.046Z,18.10
2022-08-05T09:23:18.714Z,18.20
2022-08-05T09:26:06.666Z,18.30
2022-08-05T09:28:36.577Z,18.40
2022-08-05T09:32:38.640Z,18.40
2022-08-05T09:34:03.245Z,18.50
2022-08-05T09:36:55.790Z,18.30
2022-08-05T09:39:27.671Z,18.40
2022-08-05T09:42:24.399Z,18.50
2022-08-05T09:44:56.564Z,18.40
2022-08-05T09:47:25.990Z,18.60
2022-08-05T09:50:02.308Z,18.60
2022-08-05T09:52:31.233Z,18.70
2022-08-05T09:55:56.108Z,18.70
2022-08-05T09:57:59.999Z,18.70
2022-08-05T10:00:27.581Z,18.70
2022-08-05T10:02:58.684Z,18.70
2022-08-05T10:05:27.847Z,18.80
2022-08-05T10:08:35.913Z,18.90
2022-08-05T10:10:43.942Z,18.90
2022-08-05T10:13:11.388Z,18.90
2022-08-05T10:15:41.972Z,18.90
2022-08-05T10:18:17.366Z,19.00
2022-08-05T10:20:47.915Z,19.00
2022-08-05T10:23:55.437Z,19.00
2022-08-05T10:26:14.292Z,19.00
2022-08-05T10:28:44.939Z,19.00
2022-08-05T10:32:47.090Z,19.10
2022-08-05T10:34:00.739Z,19.10
2022-08-05T10:36:27.778Z,19.10
2022-08-05T10:39:01.720Z,19.20
2022-08-05T10:41:51.547Z,19.20
2022-08-05T10:44:19.400Z,19.20
2022-08-05T10:46:50.608Z,19.30
2022-08-05T10:49:18.298Z,19.20
2022-08-05T10:52:02.358Z,19.30
2022-08-05T10:54:46.990Z,19.30
2022-08-05T10:57:29.359Z,19.40
2022-08-05T11:00:20.746Z,19.50
2022-08-05T11:03:25.730Z,19.50
2022-08-05T11:06:14.585Z,19.50
2022-08-05T11:09:16.284Z,19.60
2022-08-05T11:11:52.708Z,19.60
2022-08-05T11:14:57.660Z,19.50
2022-08-05T11:17:59.014Z,19.60
2022-08-05T11:20:47.562Z,19.70
2022-08-05T11:23:49.910Z,19.90
2022-08-05T11:26:32.146Z,19.90
2022-08-05T11:29:12.633Z,20.00
2022-08-05T11:31:56.968Z,20.10
2022-08-05T11:34:39.984Z,20.30
2022-08-05T11:38:29.277Z,20.20
2022-08-05T11:41:14.196Z,20.30
2022-08-05T11:44:07.356Z,20.20
2022-08-05T11:47:09.175Z,20.40
2022-08-05T11:49:27.760Z,20.40
2022-08-05T11:51:55.196Z,20.30
2022-08-05T11:54:33.525Z,20.40
2022-08-05T11:57:04.370Z,20.40
2022-08-05T11:59:49.352Z,20.60
2022-08-05T12:02:29.836Z,20.60
2022-08-05T12:04:59.181Z,20.60
2022-08-05T12:08:10.385Z,20.50
2022-08-05T12:10:13.576Z,20.50
2022-08-05T12:12:58.106Z,20.60
2022-08-05T12:15:33.945Z,20.60
2022-08-05T12:18:10.786Z,20.70
2022-08-05T12:20:38.924Z,20.80
2022-08-05T12:23:12.531Z,21.00
2022-08-05T12:25:56.821Z,21.10
2022-08-05T12:28:37.857Z,21.30
2022-08-05T12:31:05.197Z,21.50
2022-08-05T12:33:36.759Z,21.60
2022-08-05T12:36:09.520Z,21.70
2022-08-05T12:38:41.115Z,21.50
2022-08-05T12:41:16.205Z,21.60
2022-08-05T12:43:54.363Z,21.50
2022-08-05T12:46:28.059Z,21.50
2022-08-05T12:49:13.434Z,21.40
2022-08-05T12:52:13.649Z,21.30
2022-08-05T12:54:31.834Z,21.10
2022-08-05T12:57:03.784Z,21.20
2022-08-05T12:59:46.815Z,21.30
2022-08-05T13:02:27.315Z,21.40
2022-08-05T13:04:57.352Z,21.60
2022-08-05T13:07:57.349Z,21.70
2022-08-05T13:10:14.223Z,21.80
2022-08-05T13:12:57.595Z,21.70
2022-08-05T13:15:41.559Z,21.60
2022-08-05T13:18:19.792Z,21.50
2022-08-05T13:20:49.365Z,21.40
2022-08-05T13:23:22.125Z,21.50
2022-08-05T13:25:51.830Z,21.60
2022-08-05T13:28:27.533Z,21.70
2022-08-05T13:30:54.483Z,21.70
2022-08-05T13:34:24.589Z,21.70
2022-08-05T13:36:09.582Z,21.70
2022-08-05T13:38:41.932Z,21.60
2022-08-05T13:41:11.270Z,21.60
2022-08-05T13:43:44.094Z,21.60
2022-08-05T13:46:50.597Z,21.50
2022-08-05T13:49:12.749Z,21.40
2022-08-05T13:51:41.621Z,21.40
2022-08-05T13:54:12.605Z,21.60
2022-08-05T13:56:45.524Z,21.70
2022-08-05T13:59:20.405Z,21.70
2022-08-05T14:01:56.770Z,21.70
2022-08-05T14:04:56.267Z,21.60
2022-08-05T14:08:00.162Z,21.50
2022-08-05T14:10:31.011Z,21.50
2022-08-05T14:12:58.625Z,21.50
2022-08-05T14:16:07.847Z,21.40
2022-08-05T14:18:15.213Z,21.40
2022-08-05T14:20:47.159Z,21.40
2022-08-05T14:23:19.188Z,21.30
2022-08-05T14:25:54.315Z,21.30
2022-08-05T14:28:26.154Z,21.40
2022-08-05T14:30:54.762Z,21.50
2022-08-05T14:33:22.693Z,21.60
2022-08-05T14:35:53.967Z,21.50
2022-08-05T14:38:32.192Z,21.50
2022-08-05T14:41:06.954Z,21.50
2022-08-05T14:43:59.416Z,21.50
2022-08-05T14:46:28.710Z,21.60
2022-08-05T14:48:57.689Z,21.60
2022-08-05T14:51:26.461Z,21.60
2022-08-05T14:54:28.752Z,21.60
2022-08-05T14:56:46.887Z,21.60
2022-08-05T14:59:15.207Z,21.80
2022-08-05T15:01:48.143Z,21.80
2022-08-05T15:04:20.256Z,21.90
2022-08-05T15:06:48.990Z,21.80
2022-08-05T15:09:50.460Z,21.70
2022-08-05T15:12:04.904Z,21.60
2022-08-05T15:14:34.676Z,21.60
2022-08-05T15:17:04.940Z,21.60
2022-08-05T15:19:32.354Z,21.80
2022-08-05T15:22:01.321Z,21.70
2022-08-05T15:24:29.095Z,21.70
2022-08-05T15:26:57.168Z,21.60
2022-08-05T15:29:30.193Z,21.70
2022-08-05T15:32:02.456Z,21.70
2022-08-05T15:34:32.884Z,21.70
2022-08-05T15:37:06.992Z,21.80
2022-08-05T15:41:02.516Z,21.70
2022-08-05T15:42:55.125Z,21.60
2022-08-05T15:45:16.738Z,21.50
2022-08-05T15:47:45.732Z,21.50
2022-08-05T15:50:15.441Z,21.60
2022-08-05T15:52:53.346Z,21.70
2022-08-05T15:55:24.676Z,21.80
2022-08-05T15:57:52.421Z,21.90
2022-08-05T16:00:26.097Z,22.10
2022-08-05T16:02:59.997Z,22.20
2022-08-05T16:05:28.183Z,22.40
2022-08-05T16:07:55.604Z,22.50
2022-08-05T16:10:25.533Z,22.70
2022-08-05T16:12:56.136Z,22.80
2022-08-05T16:15:23.914Z,22.90
2022-08-05T16:17:57.388Z,22.90
2022-08-05T16:20:25.765Z,23.10
2022-08-05T16:22:55.053Z,23.30
2022-08-05T16:25:26.817Z,23.50
2022-08-05T16:28:06.010Z,23.60
2022-08-05T16:30:34.203Z,23.80
2022-08-05T16:33:03.099Z,23.90
2022-08-05T16:35:32.356Z,24.00
2022-08-05T16:38:18.713Z,24.20
2022-08-05T16:41:00.128Z,24.20
2022-08-05T16:43:34.651Z,24.10
2022-08-05T16:46:13.072Z,24.20
2022-08-05T16:48:51.735Z,24.30
2022-08-05T16:51:19.620Z,24.40
2022-08-05T16:54:06.270Z,24.50
2022-08-05T16:56:35.207Z,24.30
2022-08-05T16:59:07.688Z,24.10
2022-08-05T17:01:54.784Z,23.90
2022-08-05T17:04:26.132Z,23.60
2022-08-05T17:06:55.377Z,23.20
2022-08-05T17:09:23.027Z,23.00
2022-08-05T17:11:56.111Z,23.10
2022-08-05T17:14:36.820Z,23.00
2022-08-05T17:17:06.116Z,23.10
2022-08-05T17:19:33.020Z,23.20
2022-08-05T17:22:01.252Z,23.50
2022-08-05T17:24:38.624Z,23.60
2022-08-05T17:27:09.350Z,23.70
2022-08-05T17:29:41.075Z,23.80
2022-08-05T17:32:17.042Z,24.10
2022-08-05T17:34:48.481Z,24.30
2022-08-05T17:37:39.755Z,24.40
2022-08-05T17:40:12.141Z,24.30
2022-08-05T17:42:41.569Z,24.10
2022-08-05T17:45:20.362Z,24.20
2022-08-05T17:47:54.456Z,24.40
2022-08-05T17:50:28.637Z,24.30
2022-08-05T17:53:00.402Z,24.30
2022-08-05T17:55:38.332Z,24.30
2022-08-05T17:58:09.560Z,24.70
2022-08-05T18:00:44.415Z,24.60
2022-08-05T18:03:27.984Z,24.30
2022-08-05T18:06:04.578Z,24.10
2022-08-05T18:08:33.431Z,24.00
2022-08-05T18:11:00.752Z,23.80
2022-08-05T18:13:36.931Z,23.80
2022-08-05T18:16:13.652Z,23.60
2022-08-05T18:18:41.308Z,23.50
2022-08-05T18:21:13.298Z,23.20
2022-08-05T18:23:47.352Z,23.00
2022-08-05T18:26:14.649Z,23.00
2022-08-05T18:28:46.509Z,22.90
2022-08-05T18:31:15.700Z,22.80
2022-08-05T18:33:46.570Z,22.70
2022-08-05T18:36:15.323Z,22.80
2022-08-05T18:38:42.785Z,22.80
2022-08-05T18:41:56.358Z,22.70
2022-08-05T18:43:56.659Z,22.50
2022-08-05T18:46:25.973Z,22.50
2022-08-05T18:48:56.082Z,22.40
2022-08-05T18:52:04.323Z,22.30
2022-08-05T18:54:31.307Z,22.30
2022-08-05T18:57:02.131Z,22.30
2022-08-05T18:59:43.778Z,22.30
2022-08-05T19:02:28.573Z,22.30
2022-08-05T19:05:02.656Z,22.30
2022-08-05T19:07:50.130Z,22.20
2022-08-05T19:10:18.962Z,22.10
2022-08-05T19:12:53.760Z,22.10
2022-08-05T19:15:56.648Z,22.00
2022-08-05T19:18:10.430Z,21.80
2022-08-05T19:20:41.734Z,21.80
2022-08-05T19:24:05.996Z,21.70
2022-08-05T19:26:03.009Z,21.70
2022-08-05T19:28:31.126Z,21.80
2022-08-05T19:31:01.099Z,21.70
2022-08-05T19:33:34.065Z,21.60
2022-08-05T19:36:06.383Z,21.50
2022-08-05T19:38:35.584Z,21.50
2022-08-05T19:41:07.322Z,21.50
2022-08-05T19:44:05.475Z,21.40
2022-08-05T19:46:29.815Z,21.40
2022-08-05T19:49:03.641Z,21.30
2022-08-05T19:52:09.411Z,21.20
2022-08-05T19:54:31.028Z,21.10
2022-08-05T19:56:59.413Z,21.20
2022-08-05T19:59:59.608Z,21.10
2022-08-05T20:02:14.881Z,21.10
2022-08-05T20:04:46.153Z,21.10
2022-08-05T20:07:13.950Z,21.10
2022-08-05T20:09:54.491Z,21.10
2022-08-05T20:12:23.987Z,21.10
2022-08-05T20:14:52.594Z,21.00
2022-08-05T20:17:23.412Z,21.00
2022-08-05T20:19:57.058Z,20.80
2022-08-05T20:22:27.038Z,20.80
2022-08-05T20:24:57.585Z,20.60
2022-08-05T20:27:27.718Z,20.50
2022-08-05T20:30:10.319Z,20.50
2022-08-05T20:32:37.280Z,20.40
2022-08-05T20:35:12.200Z,20.40
2022-08-05T20:38:05.857Z,20.30
2022-08-05T20:40:27.087Z,20.30
2022-08-05T20:42:55.670Z,20.30
2022-08-05T20:45:56.549Z,20.30
2022-08-05T20:48:16.396Z,20.20
2022-08-05T20:50:45.405Z,20.00
2022-08-05T20:53:16.142Z,20.00
2022-08-05T20:56:08.230Z,20.00
2022-08-05T20:58:36.223Z,19.90
2022-08-05T21:01:04.468Z,19.90
2022-08-05T21:03:34.711Z,19.90
2022-08-05T21:06:02.167Z,19.90
2022-08-05T21:08:41.263Z,19.80
2022-08-05T21:11:15.177Z,19.80
2022-08-05T21:13:59.904Z,19.80
2022-08-05T21:16:30.109Z,19.80
2022-08-05T21:19:01.533Z,19.70
2022-08-05T21:21:39.272Z,19.70
2022-08-05T21:24:07.382Z,19.70
2022-08-05T21:26:39.453Z,19.60
2022-08-05T21:29:10.112Z,19.60
2022-08-05T21:31:41.093Z,19.70
2022-08-05T21:34:10.581Z,19.70
2022-08-05T21:36:38.503Z,19.70
2022-08-05T21:39:05.451Z,19.70
2022-08-05T21:41:35.484Z,19.70
2022-08-05T21:44:04.480Z,19.60
2022-08-05T21:46:35.091Z,19.50
2022-08-05T21:49:07.288Z,19.50
2022-08-05T21:52:27.747Z,19.50
2022-08-05T21:54:27.955Z,19.50
2022-08-05T21:57:29.947Z,19.40
2022-08-05T22:00:01.908Z,19.40
2022-08-05T22:02:39.492Z,19.50
2022-08-05T22:05:09.458Z,19.40
2022-08-05T22:07:40.053Z,19.30
2022-08-05T22:10:26.688Z,19.30
2022-08-05T22:12:57.809Z,19.20
2022-08-05T22:16:02.601Z,19.10
2022-08-05T22:18:14.355Z,19.10
2022-08-05T22:20:41.770Z,19.10
2022-08-05T22:24:01.075Z,19.10
2022-08-05T22:26:34.887Z,19.00
2022-08-05T22:29:02.759Z,19.00
2022-08-05T22:31:30.812Z,19.00
2022-08-05T22:34:11.468Z,19.00
2022-08-05T22:36:48.153Z,18.80
2022-08-05T22:39:21.342Z,18.70
2022-08-05T22:42:10.686Z,18.70
2022-08-05T22:44:35.410Z,18.70
2022-08-05T22:47:05.757Z,18.70
2022-08-05T22:50:21.356Z,18.70
2022-08-05T22:52:30.671Z,18.60
2022-08-05T22:54:59.744Z,18.50
2022-08-05T22:57:26.948Z,18.50
2022-08-05T23:00:01.271Z,18.40
2022-08-05T23:02:30.244Z,18.40
2022-08-05T23:05:01.995Z,18.30
2022-08-05T23:07:32.576Z,18.30
2022-08-05T23:10:10.822Z,18.30
2022-08-05T23:12:37.671Z,18.30
2022-08-05T23:15:08.804Z,18.30
2022-08-05T23:17:37.915Z,18.30
2022-08-05T23:20:23.582Z,18.40
2022-08-05T23:22:55.645Z,18.40
2022-08-05T23:25:50.871Z,18.30
2022-08-05T23:28:10.881Z,18.40
2022-08-05T23:30:40.381Z,18.20
2022-08-05T23:33:21.970Z,18.20
2022-08-05T23:35:52.642Z,18.10
2022-08-05T23:38:23.523Z,18.10
2022-08-05T23:40:52.572Z,18.10
2022-08-05T23:43:25.456Z,18.00
2022-08-05T23:46:20.997Z,18.00
2022-08-05T23:49:00.534Z,18.00
2022-08-05T23:51:55.016Z,17.90
2022-08-05T23:54:25.746Z,17.80
2022-08-05T23:56:53.979Z,17.70
2022-08-05T23:59:20.850Z,17.70
